sensor_id;sensor_type;location;lat;lon;timestamp;pressure;altitude;pressure_sealevel;temperature;humidity
46638;BME280;32365;46.938;7.390;2022-12-29T06:10:01;95185.88;;;7.59;65.18
46638;BME280;32365;46.938;7.390;2022-12-29T06:12:27;95188.22;;;7.61;66.26
46638;BME280;32365;46.938;7.390;2022-12-29T06:14:53;95194.50;;;7.46;69.58
46638;BME280;32365;46.938;7.390;2022-12-29T06:17:20;95172.72;;;7.23;71.71
46638;BME280;32365;46.938;7.390;2022-12-29T06:19:46;95179.50;;;7.18;72.15
46638;BME280;32365;46.938;7.390;2022-12-29T06:22:12;95185.06;;;7.15;71.90
46638;BME280;32365;46.938;7.390;2022-12-29T06:24:39;95176.50;;;7.21;70.63
46638;BME280;32365;46.938;7.390;2022-12-29T06:27:06;95180.06;;;7.20;70.70
46638;BME280;32365;46.938;7.390;2022-12-29T06:29:33;95173.19;;;7.14;71.95
46638;BME280;32365;46.938;7.390;2022-12-29T06:32:02;95175.28;;;7.23;71.11
46638;BME280;32365;46.938;7.390;2022-12-29T06:34:28;95169.56;;;7.21;69.95
46638;BME280;32365;46.938;7.390;2022-12-29T06:36:54;95162.84;;;7.20;70.84
46638;BME280;32365;46.938;7.390;2022-12-29T06:39:21;95169.50;;;7.28;69.68
46638;BME280;32365;46.938;7.390;2022-12-29T06:41:47;95169.19;;;7.43;69.37
46638;BME280;32365;46.938;7.390;2022-12-29T06:44:15;95166.56;;;7.50;69.52
46638;BME280;32365;46.938;7.390;2022-12-29T06:46:41;95170.75;;;7.44;70.94
46638;BME280;32365;46.938;7.390;2022-12-29T06:49:07;95165.44;;;7.39;70.48
46638;BME280;32365;46.938;7.390;2022-12-29T06:51:34;95162.88;;;7.39;70.72
46638;BME280;32365;46.938;7.390;2022-12-29T06:54:00;95155.38;;;7.37;70.31
46638;BME280;32365;46.938;7.390;2022-12-29T06:56:26;95161.56;;;7.30;70.80
46638;BME280;32365;46.938;7.390;2022-12-29T06:58:53;95154.78;;;7.35;70.40
46638;BME280;32365;46.938;7.390;2022-12-29T07:01:20;95150.09;;;7.51;68.25
46638;BME280;32365;46.938;7.390;2022-12-29T07:03:47;95160.53;;;7.56;69.03
46638;BME280;32365;46.938;7.390;2022-12-29T07:06:13;95164.81;;;7.44;69.86
46638;BME280;32365;46.938;7.390;2022-12-29T07:08:39;95157.72;;;7.39;69.98
46638;BME280;32365;46.938;7.390;2022-12-29T07:11:06;95156.00;;;7.33;69.58
46638;BME280;32365;46.938;7.390;2022-12-29T07:13:32;95163.22;;;7.24;70.20
46638;BME280;32365;46.938;7.390;2022-12-29T07:15:58;95163.81;;;7.45;68.79
46638;BME280;32365;46.938;7.390;2022-12-29T07:18:26;95157.44;;;7.47;68.88
46638;BME280;32365;46.938;7.390;2022-12-29T07:20:52;95151.88;;;7.50;69.20
46638;BME280;32365;46.938;7.390;2022-12-29T07:23:19;95160.25;;;7.46;68.66
46638;BME280;32365;46.938;7.390;2022-12-29T07:25:45;95154.88;;;7.47;68.27
46638;BME280;32365;46.938;7.390;2022-12-29T07:28:12;95158.25;;;7.48;68.45
46638;BME280;32365;46.938;7.390;2022-12-29T07:30:39;95147.72;;;7.49;68.84
46638;BME280;32365;46.938;7.390;2022-12-29T07:33:05;95159.88;;;7.42;68.83
46638;BME280;32365;46.938;7.390;2022-12-29T07:35:34;95160.00;;;7.47;68.63
46638;BME280;32365;46.938;7.390;2022-12-29T07:38:00;95159.88;;;7.42;70.28
46638;BME280;32365;46.938;7.390;2022-12-29T07:40:27;95167.72;;;7.29;72.26
46638;BME280;32365;46.938;7.390;2022-12-29T07:42:53;95167.78;;;7.22;71.74
46638;BME280;32365;46.938;7.390;2022-12-29T07:45:19;95181.44;;;7.22;71.49
46638;BME280;32365;46.938;7.390;2022-12-29T07:47:47;95185.38;;;7.25;71.41
46638;BME280;32365;46.938;7.390;2022-12-29T07:50:13;95184.41;;;7.45;69.33
46638;BME280;32365;46.938;7.390;2022-12-29T07:52:41;95194.19;;;7.36;69.73
46638;BME280;32365;46.938;7.390;2022-12-29T07:55:08;95193.66;;;7.52;68.95
46638;BME280;32365;46.938;7.390;2022-12-29T07:57:34;95191.91;;;7.72;67.50
46638;BME280;32365;46.938;7.390;2022-12-29T08:00:02;95200.22;;;7.74;67.74
46638;BME280;32365;46.938;7.390;2022-12-29T08:02:29;95198.28;;;7.88;66.91
46638;BME280;32365;46.938;7.390;2022-12-29T08:04:55;95201.16;;;7.79;67.51
46638;BME280;32365;46.938;7.390;2022-12-29T08:07:21;95191.91;;;7.72;67.98
46638;BME280;32365;46.938;7.390;2022-12-29T08:09:49;95198.22;;;7.76;67.80
46638;BME280;32365;46.938;7.390;2022-12-29T08:12:15;95199.69;;;7.83;68.12
46638;BME280;32365;46.938;7.390;2022-12-29T08:14:42;95204.19;;;7.69;68.83
46638;BME280;32365;46.938;7.390;2022-12-29T08:17:09;95197.69;;;7.67;69.26
46638;BME280;32365;46.938;7.390;2022-12-29T08:19:35;95203.69;;;7.61;69.72
46638;BME280;32365;46.938;7.390;2022-12-29T08:22:01;95201.63;;;7.51;70.27
46638;BME280;32365;46.938;7.390;2022-12-29T08:24:28;95199.75;;;7.58;69.52
46638;BME280;32365;46.938;7.390;2022-12-29T08:26:55;95207.03;;;7.17;68.93
46638;BME280;32365;46.938;7.390;2022-12-29T08:29:22;95198.84;;;6.31;72.18
46638;BME280;32365;46.938;7.390;2022-12-29T08:31:48;95204.72;;;5.79;74.06
46638;BME280;32365;46.938;7.390;2022-12-29T08:34:15;95220.16;;;5.39;75.55
46638;BME280;32365;46.938;7.390;2022-12-29T08:36:41;95213.28;;;5.46;76.20
46638;BME280;32365;46.938;7.390;2022-12-29T08:39:08;95211.47;;;5.47;73.69
46638;BME280;32365;46.938;7.390;2022-12-29T08:41:34;95221.34;;;4.96;75.90
46638;BME280;32365;46.938;7.390;2022-12-29T08:44:02;95218.16;;;4.94;75.34
46638;BME280;32365;46.938;7.390;2022-12-29T08:46:28;95217.72;;;4.63;75.57
46638;BME280;32365;46.938;7.390;2022-12-29T08:48:54;95213.63;;;4.89;76.21
46638;BME280;32365;46.938;7.390;2022-12-29T08:51:21;95208.69;;;4.81;75.96
46638;BME280;32365;46.938;7.390;2022-12-29T08:53:47;95208.94;;;4.93;75.29
46638;BME280;32365;46.938;7.390;2022-12-29T08:56:13;95213.47;;;5.04;74.44
46638;BME280;32365;46.938;7.390;2022-12-29T08:58:40;95222.75;;;5.39;74.95
46638;BME280;32365;46.938;7.390;2022-12-29T09:01:08;95224.44;;;5.85;73.46
46638;BME280;32365;46.938;7.390;2022-12-29T09:03:35;95226.06;;;5.60;73.32
46638;BME280;32365;46.938;7.390;2022-12-29T09:06:02;95224.66;;;5.91;72.93
46638;BME280;32365;46.938;7.390;2022-12-29T09:08:28;95238.88;;;5.93;73.57
46638;BME280;32365;46.938;7.390;2022-12-29T09:10:54;95233.19;;;5.71;72.90
46638;BME280;32365;46.938;7.390;2022-12-29T09:13:21;95225.66;;;5.76;72.79
46638;BME280;32365;46.938;7.390;2022-12-29T09:15:47;95229.41;;;5.80;72.48
46638;BME280;32365;46.938;7.390;2022-12-29T09:18:15;95238.50;;;5.69;71.66
46638;BME280;32365;46.938;7.390;2022-12-29T09:20:41;95249.59;;;5.63;72.35
46638;BME280;32365;46.938;7.390;2022-12-29T09:23:07;95250.13;;;5.85;70.18
46638;BME280;32365;46.938;7.390;2022-12-29T09:25:34;95254.31;;;5.66;71.37
46638;BME280;32365;46.938;7.390;2022-12-29T09:28:00;95259.97;;;6.22;70.96
46638;BME280;32365;46.938;7.390;2022-12-29T09:30:30;95262.19;;;5.92;72.16
46638;BME280;32365;46.938;7.390;2022-12-29T09:32:57;95255.09;;;5.94;72.62
46638;BME280;32365;46.938;7.390;2022-12-29T09:35:24;95261.38;;;6.18;71.26
46638;BME280;32365;46.938;7.390;2022-12-29T09:37:51;95258.41;;;6.21;70.98
46638;BME280;32365;46.938;7.390;2022-12-29T09:40:22;95252.91;;;6.04;72.28
46638;BME280;32365;46.938;7.390;2022-12-29T09:42:53;95244.97;;;5.99;73.46
46638;BME280;32365;46.938;7.390;2022-12-29T09:45:23;95241.66;;;5.85;73.11
46638;BME280;32365;46.938;7.390;2022-12-29T09:47:53;95250.31;;;6.11;72.57
46638;BME280;32365;46.938;7.390;2022-12-29T09:50:21;95237.88;;;5.88;73.34
46638;BME280;32365;46.938;7.390;2022-12-29T09:52:52;95233.47;;;6.22;73.47
46638;BME280;32365;46.938;7.390;2022-12-29T09:55:21;95227.06;;;6.38;74.28
46638;BME280;32365;46.938;7.390;2022-12-29T09:57:49;95233.34;;;6.55;73.91
46638;BME280;32365;46.938;7.390;2022-12-29T10:00:20;95235.31;;;6.53;75.38
46638;BME280;32365;46.938;7.390;2022-12-29T10:02:48;95244.97;;;6.65;73.99
46638;BME280;32365;46.938;7.390;2022-12-29T10:05:18;95249.25;;;6.77;73.31
46638;BME280;32365;46.938;7.390;2022-12-29T10:07:48;95237.31;;;6.90;73.00
46638;BME280;32365;46.938;7.390;2022-12-29T10:10:20;95230.28;;;6.72;71.03
46638;BME280;32365;46.938;7.390;2022-12-29T10:12:54;95229.94;;;7.00;72.14
46638;BME280;32365;46.938;7.390;2022-12-29T10:15:29;95239.66;;;7.49;71.37
46638;BME280;32365;46.938;7.390;2022-12-29T10:18:01;95243.06;;;7.43;71.85
46638;BME280;32365;46.938;7.390;2022-12-29T10:20:32;95242.25;;;7.49;71.34
46638;BME280;32365;46.938;7.390;2022-12-29T10:23:06;95246.28;;;7.63;70.10
46638;BME280;32365;46.938;7.390;2022-12-29T10:25:41;95235.53;;;7.66;72.79
46638;BME280;32365;46.938;7.390;2022-12-29T10:28:10;95228.56;;;8.29;73.93
46638;BME280;32365;46.938;7.390;2022-12-29T10:30:41;95235.00;;;8.57;74.84
46638;BME280;32365;46.938;7.390;2022-12-29T10:33:11;95235.34;;;8.91;72.63
46638;BME280;32365;46.938;7.390;2022-12-29T10:35:38;95232.38;;;9.18;71.95
46638;BME280;32365;46.938;7.390;2022-12-29T10:38:11;95228.22;;;9.29;70.79
46638;BME280;32365;46.938;7.390;2022-12-29T10:40:42;95217.78;;;9.36;70.40
46638;BME280;32365;46.938;7.390;2022-12-29T10:43:12;95215.13;;;9.54;70.95
46638;BME280;32365;46.938;7.390;2022-12-29T10:45:42;95219.13;;;9.98;70.66
46638;BME280;32365;46.938;7.390;2022-12-29T10:48:10;95209.41;;;10.41;69.28
46638;BME280;32365;46.938;7.390;2022-12-29T10:50:37;95207.59;;;10.29;70.33
46638;BME280;32365;46.938;7.390;2022-12-29T10:53:07;95198.69;;;10.37;70.66
46638;BME280;32365;46.938;7.390;2022-12-29T10:55:38;95196.19;;;10.01;71.47
46638;BME280;32365;46.938;7.390;2022-12-29T10:58:11;95182.72;;;9.88;72.18
46638;BME280;32365;46.938;7.390;2022-12-29T11:00:38;95177.22;;;11.12;68.19
46638;BME280;32365;46.938;7.390;2022-12-29T11:05:46;95154.41;;;12.09;64.40
46638;BME280;32365;46.938;7.390;2022-12-29T11:08:16;95152.00;;;12.25;61.99
46638;BME280;32365;46.938;7.390;2022-12-29T11:10:43;95152.00;;;12.25;62.12
46638;BME280;32365;46.938;7.390;2022-12-29T11:13:12;95145.69;;;12.70;60.81
46638;BME280;32365;46.938;7.390;2022-12-29T11:15:40;95141.09;;;13.15;58.58
46638;BME280;32365;46.938;7.390;2022-12-29T11:18:16;95138.25;;;12.84;60.34
46638;BME280;32365;46.938;7.390;2022-12-29T11:20:43;95137.16;;;13.13;58.86
46638;BME280;32365;46.938;7.390;2022-12-29T11:23:20;95135.84;;;13.10;59.10
46638;BME280;32365;46.938;7.390;2022-12-29T11:25:49;95132.13;;;13.33;58.46
46638;BME280;32365;46.938;7.390;2022-12-29T11:28:32;95120.72;;;13.93;56.91
46638;BME280;32365;46.938;7.390;2022-12-29T11:30:58;95116.50;;;14.76;52.93
46638;BME280;32365;46.938;7.390;2022-12-29T11:33:27;95112.00;;;14.25;55.84
46638;BME280;32365;46.938;7.390;2022-12-29T11:35:56;95109.47;;;14.87;53.30
46638;BME280;32365;46.938;7.390;2022-12-29T11:38:25;95111.47;;;15.47;52.20
46638;BME280;32365;46.938;7.390;2022-12-29T11:40:53;95108.44;;;14.72;54.36
46638;BME280;32365;46.938;7.390;2022-12-29T11:43:21;95106.53;;;14.47;53.87
46638;BME280;32365;46.938;7.390;2022-12-29T11:45:51;95112.47;;;12.77;58.76
46638;BME280;32365;46.938;7.390;2022-12-29T11:48:19;95107.88;;;13.22;58.43
46638;BME280;32365;46.938;7.390;2022-12-29T11:50:48;95103.44;;;12.53;61.02
46638;BME280;32365;46.938;7.390;2022-12-29T11:53:17;95097.56;;;11.63;61.77
46638;BME280;32365;46.938;7.390;2022-12-29T11:55:50;95105.03;;;11.20;64.28
46638;BME280;32365;46.938;7.390;2022-12-29T11:58:17;95095.84;;;11.13;63.69
46638;BME280;32365;46.938;7.390;2022-12-29T12:00:43;95106.97;;;11.30;63.83
46638;BME280;32365;46.938;7.390;2022-12-29T12:03:13;95115.09;;;11.17;65.47
46638;BME280;32365;46.938;7.390;2022-12-29T12:05:43;95111.53;;;11.40;65.33
46638;BME280;32365;46.938;7.390;2022-12-29T12:08:11;95106.34;;;11.62;65.80
46638;BME280;32365;46.938;7.390;2022-12-29T12:10:42;95103.78;;;11.84;65.25
46638;BME280;32365;46.938;7.390;2022-12-29T12:13:17;95105.59;;;12.06;64.18
46638;BME280;32365;46.938;7.390;2022-12-29T12:15:47;95108.41;;;11.21;66.78
46638;BME280;32365;46.938;7.390;2022-12-29T12:18:18;95109.59;;;11.13;67.81
46638;BME280;32365;46.938;7.390;2022-12-29T12:20:45;95115.34;;;10.81;68.33
46638;BME280;32365;46.938;7.390;2022-12-29T12:23:22;95111.09;;;10.58;69.67
46638;BME280;32365;46.938;7.390;2022-12-29T12:25:57;95111.63;;;10.31;70.64
46638;BME280;32365;46.938;7.390;2022-12-29T12:28:28;95112.66;;;10.01;72.07
46638;BME280;32365;46.938;7.390;2022-12-29T12:30:57;95120.75;;;10.05;71.34
46638;BME280;32365;46.938;7.390;2022-12-29T12:33:27;95110.47;;;9.81;72.13
46638;BME280;32365;46.938;7.390;2022-12-29T12:36:00;95115.06;;;9.91;71.96
46638;BME280;32365;46.938;7.390;2022-12-29T12:38:31;95115.63;;;9.69;73.17
46638;BME280;32365;46.938;7.390;2022-12-29T12:41:05;95113.78;;;9.52;74.70
46638;BME280;32365;46.938;7.390;2022-12-29T12:43:37;95115.94;;;9.20;76.58
46638;BME280;32365;46.938;7.390;2022-12-29T12:48:55;95091.34;;;8.93;78.94
46638;BME280;32365;46.938;7.390;2022-12-29T12:51:27;95063.84;;;8.75;81.43
46638;BME280;32365;46.938;7.390;2022-12-29T12:54:01;95060.22;;;8.65;82.72
46638;BME280;32365;46.938;7.390;2022-12-29T12:56:40;95071.22;;;8.60;84.56
46638;BME280;32365;46.938;7.390;2022-12-29T12:59:13;95068.81;;;8.46;85.05
46638;BME280;32365;46.938;7.390;2022-12-29T13:01:45;95066.22;;;8.46;85.12
46638;BME280;32365;46.938;7.390;2022-12-29T13:04:26;95077.72;;;8.51;87.56
46638;BME280;32365;46.938;7.390;2022-12-29T13:07:01;95068.97;;;8.52;88.05
46638;BME280;32365;46.938;7.390;2022-12-29T13:09:34;95066.63;;;8.74;87.69
46638;BME280;32365;46.938;7.390;2022-12-29T13:12:11;95066.28;;;8.70;87.47
46638;BME280;32365;46.938;7.390;2022-12-29T13:14:42;95055.84;;;8.77;88.81
46638;BME280;32365;46.938;7.390;2022-12-29T13:17:12;95062.16;;;8.81;87.29
46638;BME280;32365;46.938;7.390;2022-12-29T13:19:45;95072.25;;;8.95;86.73
46638;BME280;32365;46.938;7.390;2022-12-29T13:22:16;95063.81;;;8.87;85.56
46638;BME280;32365;46.938;7.390;2022-12-29T13:24:47;95063.59;;;9.01;85.30
46638;BME280;32365;46.938;7.390;2022-12-29T13:27:19;95061.81;;;9.13;86.49
46638;BME280;32365;46.938;7.390;2022-12-29T13:29:48;95066.63;;;9.21;86.90
46638;BME280;32365;46.938;7.390;2022-12-29T13:32:19;95077.03;;;9.38;86.07
46638;BME280;32365;46.938;7.390;2022-12-29T13:34:51;95068.56;;;9.26;86.71
46638;BME280;32365;46.938;7.390;2022-12-29T13:37:22;95069.44;;;9.32;86.65
46638;BME280;32365;46.938;7.390;2022-12-29T13:39:52;95064.81;;;9.46;85.70
46638;BME280;32365;46.938;7.390;2022-12-29T13:42:21;95073.03;;;9.31;85.38
46638;BME280;32365;46.938;7.390;2022-12-29T13:44:51;95075.38;;;9.32;86.32
46638;BME280;32365;46.938;7.390;2022-12-29T13:47:20;95075.22;;;9.51;86.59
46638;BME280;32365;46.938;7.390;2022-12-29T13:49:47;95071.75;;;9.45;84.96
46638;BME280;32365;46.938;7.390;2022-12-29T13:52:17;95066.19;;;9.36;84.68
46638;BME280;32365;46.938;7.390;2022-12-29T13:54:51;95070.19;;;9.44;80.96
46638;BME280;32365;46.938;7.390;2022-12-29T13:57:24;95064.00;;;9.57;79.10
46638;BME280;32365;46.938;7.390;2022-12-29T13:59:57;95061.84;;;9.54;80.17
46638;BME280;32365;46.938;7.390;2022-12-29T14:02:26;95059.84;;;9.56;80.74
46638;BME280;32365;46.938;7.390;2022-12-29T14:04:59;95065.38;;;9.48;81.49
46638;BME280;32365;46.938;7.390;2022-12-29T14:07:27;95065.00;;;9.56;80.42
46638;BME280;32365;46.938;7.390;2022-12-29T14:09:54;95067.59;;;9.44;81.76
46638;BME280;32365;46.938;7.390;2022-12-29T14:12:27;95068.06;;;9.41;81.81
46638;BME280;32365;46.938;7.390;2022-12-29T14:15:02;95069.09;;;9.40;81.34
46638;BME280;32365;46.938;7.390;2022-12-29T14:17:28;95074.41;;;9.62;80.41
46638;BME280;32365;46.938;7.390;2022-12-29T14:19:54;95074.56;;;9.55;79.47
46638;BME280;32365;46.938;7.390;2022-12-29T14:22:24;95081.88;;;9.47;79.69
46638;BME280;32365;46.938;7.390;2022-12-29T14:24:52;95073.81;;;9.43;78.90
46638;BME280;32365;46.938;7.390;2022-12-29T14:30:05;95086.47;;;9.33;79.41
46638;BME280;32365;46.938;7.390;2022-12-29T14:33:03;95080.31;;;9.34;77.44
46638;BME280;32365;46.938;7.390;2022-12-29T14:35:40;95088.41;;;9.26;77.22
46638;BME280;32365;46.938;7.390;2022-12-29T14:38:12;95089.34;;;9.19;77.78
46638;BME280;32365;46.938;7.390;2022-12-29T14:40:42;95104.03;;;9.19;77.89
46638;BME280;32365;46.938;7.390;2022-12-29T14:43:11;95090.09;;;9.20;77.56
46638;BME280;32365;46.938;7.390;2022-12-29T14:45:38;95097.19;;;9.13;78.23
46638;BME280;32365;46.938;7.390;2022-12-29T14:48:19;95086.72;;;9.07;78.37
46638;BME280;32365;46.938;7.390;2022-12-29T14:50:47;95084.16;;;9.07;78.58
46638;BME280;32365;46.938;7.390;2022-12-29T14:55:57;95085.72;;;8.97;79.93
46638;BME280;32365;46.938;7.390;2022-12-29T14:58:25;95100.19;;;8.86;80.58
46638;BME280;32365;46.938;7.390;2022-12-29T15:00:53;95092.56;;;8.79;82.21
46638;BME280;32365;46.938;7.390;2022-12-29T15:03:22;95105.53;;;8.60;84.29
46638;BME280;32365;46.938;7.390;2022-12-29T15:05:49;95095.19;;;8.49;86.41
46638;BME280;32365;46.938;7.390;2022-12-29T15:08:17;95100.19;;;8.43;88.13
46638;BME280;32365;46.938;7.390;2022-12-29T15:10:45;95098.03;;;8.28;89.13
46638;BME280;32365;46.938;7.390;2022-12-29T15:13:16;95106.19;;;8.25;89.74
46638;BME280;32365;46.938;7.390;2022-12-29T15:15:42;95096.19;;;8.17;91.06
46638;BME280;32365;46.938;7.390;2022-12-29T15:18:21;95092.00;;;8.04;92.65
46638;BME280;32365;46.938;7.390;2022-12-29T15:20:49;95095.88;;;7.95;92.80
46638;BME280;32365;46.938;7.390;2022-12-29T15:23:16;95095.03;;;7.82;94.00
46638;BME280;32365;46.938;7.390;2022-12-29T15:25:46;95112.38;;;7.75;95.67
46638;BME280;32365;46.938;7.390;2022-12-29T15:28:13;95116.44;;;7.64;95.16
46638;BME280;32365;46.938;7.390;2022-12-29T15:30:50;95111.16;;;7.78;95.46
46638;BME280;32365;46.938;7.390;2022-12-29T15:33:17;95116.09;;;7.79;94.56
46638;BME280;32365;46.938;7.390;2022-12-29T15:35:44;95111.16;;;7.78;95.70
46638;BME280;32365;46.938;7.390;2022-12-29T15:38:16;95119.81;;;7.65;96.14
46638;BME280;32365;46.938;7.390;2022-12-29T15:40:43;95111.75;;;7.61;96.21
46638;BME280;32365;46.938;7.390;2022-12-29T15:43:17;95109.22;;;7.54;97.18
46638;BME280;32365;46.938;7.390;2022-12-29T15:45:46;95113.50;;;7.61;94.62
46638;BME280;32365;46.938;7.390;2022-12-29T15:48:15;95116.66;;;7.63;95.22
46638;BME280;32365;46.938;7.390;2022-12-29T15:50:43;95122.63;;;7.63;95.11
46638;BME280;32365;46.938;7.390;2022-12-29T15:53:11;95118.25;;;7.45;96.01
46638;BME280;32365;46.938;7.390;2022-12-29T15:55:39;95113.59;;;7.35;96.94
46638;BME280;32365;46.938;7.390;2022-12-29T15:58:16;95104.00;;;7.24;97.72
46638;BME280;32365;46.938;7.390;2022-12-29T16:00:46;95101.41;;;7.24;98.49
46638;BME280;32365;46.938;7.390;2022-12-29T16:03:12;95109.84;;;7.31;98.16
46638;BME280;32365;46.938;7.390;2022-12-29T16:05:41;95104.13;;;7.29;97.97
46638;BME280;32365;46.938;7.390;2022-12-29T16:08:20;95101.84;;;7.21;98.65
46638;BME280;32365;46.938;7.390;2022-12-29T16:10:47;95108.41;;;7.17;99.05
46638;BME280;32365;46.938;7.390;2022-12-29T16:13:15;95106.69;;;7.11;99.62
46638;BME280;32365;46.938;7.390;2022-12-29T16:15:45;95098.59;;;7.07;100.00
46638;BME280;32365;46.938;7.390;2022-12-29T16:18:12;95106.31;;;7.07;100.00
46638;BME280;32365;46.938;7.390;2022-12-29T16:20:47;95109.09;;;7.05;100.00
46638;BME280;32365;46.938;7.390;2022-12-29T16:23:16;95107.91;;;7.08;100.00
46638;BME280;32365;46.938;7.390;2022-12-29T16:25:44;95102.00;;;7.01;100.00
46638;BME280;32365;46.938;7.390;2022-12-29T16:28:15;95094.44;;;7.06;100.00
46638;BME280;32365;46.938;7.390;2022-12-29T16:30:43;95086.94;;;7.04;100.00
46638;BME280;32365;46.938;7.390;2022-12-29T16:35:52;95087.91;;;6.85;100.00
46638;BME280;32365;46.938;7.390;2022-12-29T16:38:19;95097.88;;;6.74;100.00
46638;BME280;32365;46.938;7.390;2022-12-29T16:40:50;95090.75;;;6.76;100.00
46638;BME280;32365;46.938;7.390;2022-12-29T16:43:21;95099.19;;;6.84;100.00
46638;BME280;32365;46.938;7.390;2022-12-29T16:48:32;95099.59;;;6.81;100.00
46638;BME280;32365;46.938;7.390;2022-12-29T16:51:05;95111.69;;;6.80;100.00
46638;BME280;32365;46.938;7.390;2022-12-29T16:53:32;95111.50;;;6.75;100.00
46638;BME280;32365;46.938;7.390;2022-12-29T16:56:02;95117.66;;;6.74;100.00
46638;BME280;32365;46.938;7.390;2022-12-29T16:58:29;95130.06;;;6.84;100.00
46638;BME280;32365;46.938;7.390;2022-12-29T17:00:57;95132.69;;;6.77;100.00
46638;BME280;32365;46.938;7.390;2022-12-29T17:03:27;95130.16;;;6.70;100.00
46638;BME280;32365;46.938;7.390;2022-12-29T17:05:57;95137.34;;;6.61;100.00
46638;BME280;32365;46.938;7.390;2022-12-29T17:08:25;95137.19;;;6.56;100.00
46638;BME280;32365;46.938;7.390;2022-12-29T17:10:51;95137.91;;;6.63;100.00
46638;BME280;32365;46.938;7.390;2022-12-29T17:13:36;95142.09;;;6.58;100.00
46638;BME280;32365;46.938;7.390;2022-12-29T17:16:03;95136.44;;;6.49;100.00
46638;BME280;32365;46.938;7.390;2022-12-29T17:18:30;95139.63;;;6.44;100.00
46638;BME280;32365;46.938;7.390;2022-12-29T17:20:56;95144.75;;;6.44;100.00
46638;BME280;32365;46.938;7.390;2022-12-29T17:23:22;95141.97;;;6.53;100.00
46638;BME280;32365;46.938;7.390;2022-12-29T17:25:50;95150.41;;;6.60;100.00
46638;BME280;32365;46.938;7.390;2022-12-29T17:28:18;95146.09;;;6.54;100.00
46638;BME280;32365;46.938;7.390;2022-12-29T17:30:45;95145.94;;;6.49;100.00
46638;BME280;32365;46.938;7.390;2022-12-29T17:33:13;95150.78;;;6.63;100.00
46638;BME280;32365;46.938;7.390;2022-12-29T17:35:40;95156.34;;;6.60;100.00
46638;BME280;32365;46.938;7.390;2022-12-29T17:38:10;95159.13;;;6.59;100.00
46638;BME280;32365;46.938;7.390;2022-12-29T17:40:41;95158.94;;;6.60;100.00
46638;BME280;32365;46.938;7.390;2022-12-29T17:43:09;95158.94;;;6.60;100.00
46638;BME280;32365;46.938;7.390;2022-12-29T17:45:37;95159.50;;;6.62;100.00
46638;BME280;32365;46.938;7.390;2022-12-29T17:48:04;95148.75;;;6.72;100.00
46638;BME280;32365;46.938;7.390;2022-12-29T17:50:36;95152.16;;;6.66;100.00
46638;BME280;32365;46.938;7.390;2022-12-29T17:53:04;95149.56;;;6.73;100.00
46638;BME280;32365;46.938;7.390;2022-12-29T17:55:31;95155.38;;;6.61;100.00
46638;BME280;32365;46.938;7.390;2022-12-29T17:57:57;95155.97;;;6.57;100.00
46638;BME280;32365;46.938;7.390;2022-12-29T18:00:25;95155.00;;;6.51;100.00
46638;BME280;32365;46.938;7.390;2022-12-29T18:02:52;95158.13;;;6.60;100.00
46638;BME280;32365;46.938;7.390;2022-12-29T18:05:19;95167.25;;;6.56;100.00
46638;BME280;32365;46.938;7.390;2022-12-29T18:07:46;95161.09;;;6.57;100.00
46638;BME280;32365;46.938;7.390;2022-12-29T18:10:13;95163.84;;;6.62;100.00
46638;BME280;32365;46.938;7.390;2022-12-29T18:12:40;95165.66;;;6.61;100.00
46638;BME280;32365;46.938;7.390;2022-12-29T18:15:12;95163.91;;;6.55;100.00
46638;BME280;32365;46.938;7.390;2022-12-29T18:17:43;95160.69;;;6.60;100.00
46638;BME280;32365;46.938;7.390;2022-12-29T18:20:09;95160.31;;;6.56;100.00
46638;BME280;32365;46.938;7.390;2022-12-29T18:22:35;95157.13;;;6.61;100.00
46638;BME280;32365;46.938;7.390;2022-12-29T18:25:02;95160.53;;;6.55;100.00
46638;BME280;32365;46.938;7.390;2022-12-29T18:27:29;95158.03;;;6.41;100.00
46638;BME280;32365;46.938;7.390;2022-12-29T18:29:56;95156.84;;;6.44;100.00
46638;BME280;32365;46.938;7.390;2022-12-29T18:32:22;95161.53;;;6.54;100.00
46638;BME280;32365;46.938;7.390;2022-12-29T18:34:50;95162.38;;;6.41;100.00
46638;BME280;32365;46.938;7.390;2022-12-29T18:37:16;95164.75;;;6.49;100.00
46638;BME280;32365;46.938;7.390;2022-12-29T18:39:43;95162.16;;;6.49;100.00
46638;BME280;32365;46.938;7.390;2022-12-29T18:42:09;95169.31;;;6.40;100.00
46638;BME280;32365;46.938;7.390;2022-12-29T18:44:41;95173.44;;;6.48;100.00
46638;BME280;32365;46.938;7.390;2022-12-29T18:47:07;95171.28;;;6.45;100.00
46638;BME280;32365;46.938;7.390;2022-12-29T18:49:33;95170.50;;;6.38;100.00
46638;BME280;32365;46.938;7.390;2022-12-29T18:52:01;95166.59;;;6.28;100.00
46638;BME280;32365;46.938;7.390;2022-12-29T18:54:28;95170.34;;;6.32;100.00
46638;BME280;32365;46.938;7.390;2022-12-29T18:56:55;95178.28;;;6.31;100.00
46638;BME280;32365;46.938;7.390;2022-12-29T18:59:21;95177.06;;;6.34;100.00
46638;BME280;32365;46.938;7.390;2022-12-29T19:01:48;95173.25;;;6.43;100.00
46638;BME280;32365;46.938;7.390;2022-12-29T19:04:14;95177.06;;;6.34;100.00
46638;BME280;32365;46.938;7.390;2022-12-29T19:06:41;95182.41;;;6.32;100.00
46638;BME280;32365;46.938;7.390;2022-12-29T19:09:08;95181.84;;;6.30;100.00
46638;BME280;32365;46.938;7.390;2022-12-29T19:11:35;95179.28;;;6.30;100.00
46638;BME280;32365;46.938;7.390;2022-12-29T19:14:01;95175.75;;;6.24;100.00
46638;BME280;32365;46.938;7.390;2022-12-29T19:16:28;95175.94;;;6.23;100.00
46638;BME280;32365;46.938;7.390;2022-12-29T19:18:54;95175.94;;;6.23;100.00
46638;BME280;32365;46.938;7.390;2022-12-29T19:21:20;95172.19;;;6.25;100.00
46638;BME280;32365;46.938;7.390;2022-12-29T19:23:47;95172.94;;;6.26;100.00
46638;BME280;32365;46.938;7.390;2022-12-29T19:26:16;95175.16;;;6.22;100.00
46638;BME280;32365;46.938;7.390;2022-12-29T19:28:49;95167.06;;;6.19;100.00
46638;BME280;32365;46.938;7.390;2022-12-29T19:31:16;95175.16;;;6.22;100.00
46638;BME280;32365;46.938;7.390;2022-12-29T19:33:42;95179.06;;;6.31;100.00
46638;BME280;32365;46.938;7.390;2022-12-29T19:36:09;95191.53;;;6.28;100.00
46638;BME280;32365;46.938;7.390;2022-12-29T19:38:39;95187.59;;;6.25;100.00
46638;BME280;32365;46.938;7.390;2022-12-29T19:41:06;95183.84;;;6.21;100.00